sensor_id;sensor_type;location;lat;lon;timestamp;P1;durP1;ratioP1;P2;durP2;ratioP2
74799;SDS011;63326;45.088;7.658;2023-04-24T00:01:05;6.03;;;3.08;;
74799;SDS011;63326;45.088;7.658;2023-04-24T00:03:34;4.72;;;3.05;;
74799;SDS011;63326;45.088;7.658;2023-04-24T00:06:01;12.13;;;2.83;;
74799;SDS011;63326;45.088;7.658;2023-04-24T00:08:29;4.50;;;3.00;;
74799;SDS011;63326;45.088;7.658;2023-04-24T00:10:56;4.32;;;2.60;;
74799;SDS011;63326;45.088;7.658;2023-04-24T00:13:23;7.22;;;3.05;;
74799;SDS011;63326;45.088;7.658;2023-04-24T00:15:49;5.00;;;2.75;;
74799;SDS011;63326;45.088;7.658;2023-04-24T00:18:16;7.13;;;4.15;;
74799;SDS011;63326;45.088;7.658;2023-04-24T00:20:43;5.75;;;3.00;;
74799;SDS011;63326;45.088;7.658;2023-04-24T00:23:10;7.07;;;3.10;;
74799;SDS011;63326;45.088;7.658;2023-04-24T00:25:36;4.20;;;2.72;;
74799;SDS011;63326;45.088;7.658;2023-04-24T00:28:03;4.75;;;3.42;;
74799;SDS011;63326;45.088;7.658;2023-04-24T00:30:30;5.28;;;2.78;;
74799;SDS011;63326;45.088;7.658;2023-04-24T00:32:57;6.85;;;3.38;;
74799;SDS011;63326;45.088;7.658;2023-04-24T00:35:24;5.50;;;3.42;;
74799;SDS011;63326;45.088;7.658;2023-04-24T00:37:51;10.50;;;3.47;;
74799;SDS011;63326;45.088;7.658;2023-04-24T00:40:17;5.68;;;2.80;;
74799;SDS011;63326;45.088;7.658;2023-04-24T00:42:44;7.10;;;3.65;;
74799;SDS011;63326;45.088;7.658;2023-04-24T00:45:11;7.60;;;3.08;;
74799;SDS011;63326;45.088;7.658;2023-04-24T00:47:39;7.63;;;3.22;;
74799;SDS011;63326;45.088;7.658;2023-04-24T00:50:06;6.13;;;3.50;;
74799;SDS011;63326;45.088;7.658;2023-04-24T00:52:34;6.03;;;3.42;;
74799;SDS011;63326;45.088;7.658;2023-04-24T00:55:00;6.47;;;3.70;;
74799;SDS011;63326;45.088;7.658;2023-04-24T00:57:27;6.93;;;3.30;;
74799;SDS011;63326;45.088;7.658;2023-04-24T00:59:54;4.90;;;2.95;;
74799;SDS011;63326;45.088;7.658;2023-04-24T01:02:21;5.10;;;2.42;;
74799;SDS011;63326;45.088;7.658;2023-04-24T01:04:50;4.75;;;3.03;;
74799;SDS011;63326;45.088;7.658;2023-04-24T01:07:20;6.38;;;3.15;;
74799;SDS011;63326;45.088;7.658;2023-04-24T01:09:50;7.75;;;3.72;;
74799;SDS011;63326;45.088;7.658;2023-04-24T01:12:17;6.13;;;2.90;;
74799;SDS011;63326;45.088;7.658;2023-04-24T01:14:45;5.82;;;3.60;;
74799;SDS011;63326;45.088;7.658;2023-04-24T01:17:14;8.02;;;4.07;;
74799;SDS011;63326;45.088;7.658;2023-04-24T01:19:41;7.95;;;3.05;;
74799;SDS011;63326;45.088;7.658;2023-04-24T01:22:12;6.65;;;3.90;;
74799;SDS011;63326;45.088;7.658;2023-04-24T01:24:40;6.70;;;3.58;;
74799;SDS011;63326;45.088;7.658;2023-04-24T01:27:08;6.07;;;3.60;;
74799;SDS011;63326;45.088;7.658;2023-04-24T01:29:36;6.10;;;3.05;;
74799;SDS011;63326;45.088;7.658;2023-04-24T01:32:03;6.93;;;2.95;;
74799;SDS011;63326;45.088;7.658;2023-04-24T01:34:31;6.63;;;3.58;;
74799;SDS011;63326;45.088;7.658;2023-04-24T01:36:58;8.02;;;3.63;;
74799;SDS011;63326;45.088;7.658;2023-04-24T01:39:25;7.47;;;4.03;;
74799;SDS011;63326;45.088;7.658;2023-04-24T01:41:55;7.53;;;3.60;;
74799;SDS011;63326;45.088;7.658;2023-04-24T01:44:22;9.07;;;4.03;;
74799;SDS011;63326;45.088;7.658;2023-04-24T01:46:49;7.47;;;3.63;;
74799;SDS011;63326;45.088;7.658;2023-04-24T01:49:17;6.47;;;3.85;;
74799;SDS011;63326;45.088;7.658;2023-04-24T01:51:44;5.15;;;3.30;;
74799;SDS011;63326;45.088;7.658;2023-04-24T01:54:11;7.47;;;3.72;;
74799;SDS011;63326;45.088;7.658;2023-04-24T01:56:42;4.53;;;3.25;;
74799;SDS011;63326;45.088;7.658;2023-04-24T01:59:12;5.25;;;3.45;;
74799;SDS011;63326;45.088;7.658;2023-04-24T02:01:39;5.88;;;3.30;;
74799;SDS011;63326;45.088;7.658;2023-04-24T02:04:06;6.07;;;3.25;;
74799;SDS011;63326;45.088;7.658;2023-04-24T02:06:34;5.53;;;3.28;;
74799;SDS011;63326;45.088;7.658;2023-04-24T02:09:01;6.13;;;4.13;;
74799;SDS011;63326;45.088;7.658;2023-04-24T02:11:29;9.77;;;4.60;;
74799;SDS011;63326;45.088;7.658;2023-04-24T02:13:56;4.20;;;2.85;;
74799;SDS011;63326;45.088;7.658;2023-04-24T02:16:23;4.55;;;3.05;;
74799;SDS011;63326;45.088;7.658;2023-04-24T02:18:51;5.18;;;3.35;;
74799;SDS011;63326;45.088;7.658;2023-04-24T02:21:17;5.50;;;3.17;;
74799;SDS011;63326;45.088;7.658;2023-04-24T02:23:44;5.32;;;2.65;;
74799;SDS011;63326;45.088;7.658;2023-04-24T02:26:12;5.72;;;2.78;;
74799;SDS011;63326;45.088;7.658;2023-04-24T02:28:38;8.30;;;3.97;;
74799;SDS011;63326;45.088;7.658;2023-04-24T02:31:05;5.32;;;3.03;;
74799;SDS011;63326;45.088;7.658;2023-04-24T02:33:32;5.53;;;2.97;;
74799;SDS011;63326;45.088;7.658;2023-04-24T02:35:59;6.50;;;2.83;;
74799;SDS011;63326;45.088;7.658;2023-04-24T02:38:26;5.85;;;3.15;;
74799;SDS011;63326;45.088;7.658;2023-04-24T02:40:53;5.22;;;3.25;;
74799;SDS011;63326;45.088;7.658;2023-04-24T02:43:19;5.20;;;3.15;;
74799;SDS011;63326;45.088;7.658;2023-04-24T02:45:46;5.63;;;2.90;;
74799;SDS011;63326;45.088;7.658;2023-04-24T02:48:13;5.78;;;3.22;;
74799;SDS011;63326;45.088;7.658;2023-04-24T02:50:40;6.07;;;3.47;;
74799;SDS011;63326;45.088;7.658;2023-04-24T02:53:07;4.93;;;2.90;;
74799;SDS011;63326;45.088;7.658;2023-04-24T02:55:33;4.43;;;2.63;;
74799;SDS011;63326;45.088;7.658;2023-04-24T02:58:00;5.15;;;2.88;;
74799;SDS011;63326;45.088;7.658;2023-04-24T03:00:27;4.65;;;2.78;;
74799;SDS011;63326;45.088;7.658;2023-04-24T03:02:54;5.45;;;3.08;;
74799;SDS011;63326;45.088;7.658;2023-04-24T03:05:21;6.18;;;3.28;;
74799;SDS011;63326;45.088;7.658;2023-04-24T03:07:47;5.93;;;3.17;;
74799;SDS011;63326;45.088;7.658;2023-04-24T03:10:14;9.43;;;4.57;;
74799;SDS011;63326;45.088;7.658;2023-04-24T03:12:40;7.43;;;3.50;;
74799;SDS011;63326;45.088;7.658;2023-04-24T03:15:07;5.28;;;2.75;;
74799;SDS011;63326;45.088;7.658;2023-04-24T03:17:36;5.68;;;3.22;;
74799;SDS011;63326;45.088;7.658;2023-04-24T03:20:03;5.88;;;3.22;;
74799;SDS011;63326;45.088;7.658;2023-04-24T03:22:31;5.88;;;3.08;;
74799;SDS011;63326;45.088;7.658;2023-04-24T03:25:00;6.60;;;3.03;;
74799;SDS011;63326;45.088;7.658;2023-04-24T03:27:29;7.05;;;3.58;;
74799;SDS011;63326;45.088;7.658;2023-04-24T03:30:01;4.40;;;2.83;;
74799;SDS011;63326;45.088;7.658;2023-04-24T03:32:39;6.30;;;3.25;;
74799;SDS011;63326;45.088;7.658;2023-04-24T03:35:09;6.97;;;3.65;;
74799;SDS011;63326;45.088;7.658;2023-04-24T03:37:35;5.32;;;3.03;;
74799;SDS011;63326;45.088;7.658;2023-04-24T03:40:31;5.20;;;3.10;;
74799;SDS011;63326;45.088;7.658;2023-04-24T03:43:01;5.32;;;3.65;;
74799;SDS011;63326;45.088;7.658;2023-04-24T03:45:28;5.75;;;3.70;;
74799;SDS011;63326;45.088;7.658;2023-04-24T03:47:56;6.60;;;3.38;;
74799;SDS011;63326;45.088;7.658;2023-04-24T03:50:24;5.55;;;3.28;;
74799;SDS011;63326;45.088;7.658;2023-04-24T03:52:53;6.80;;;3.65;;
74799;SDS011;63326;45.088;7.658;2023-04-24T03:55:32;4.47;;;2.53;;
74799;SDS011;63326;45.088;7.658;2023-04-24T03:57:59;5.20;;;2.95;;
74799;SDS011;63326;45.088;7.658;2023-04-24T04:00:26;6.78;;;3.03;;
74799;SDS011;63326;45.088;7.658;2023-04-24T04:03:09;6.13;;;3.53;;
74799;SDS011;63326;45.088;7.658;2023-04-24T04:05:36;10.43;;;3.30;;
74799;SDS011;63326;45.088;7.658;2023-04-24T04:08:03;5.93;;;3.40;;
74799;SDS011;63326;45.088;7.658;2023-04-24T04:10:30;5.55;;;3.25;;
74799;SDS011;63326;45.088;7.658;2023-04-24T04:12:56;5.20;;;2.80;;
74799;SDS011;63326;45.088;7.658;2023-04-24T04:15:23;6.25;;;2.97;;
74799;SDS011;63326;45.088;7.658;2023-04-24T04:17:50;5.50;;;3.63;;
74799;SDS011;63326;45.088;7.658;2023-04-24T04:20:16;6.32;;;2.65;;
74799;SDS011;63326;45.088;7.658;2023-04-24T04:22:43;5.85;;;3.00;;
74799;SDS011;63326;45.088;7.658;2023-04-24T04:25:15;6.97;;;3.50;;
74799;SDS011;63326;45.088;7.658;2023-04-24T04:27:46;5.57;;;3.42;;
74799;SDS011;63326;45.088;7.658;2023-04-24T04:30:14;4.85;;;2.13;;
74799;SDS011;63326;45.088;7.658;2023-04-24T04:32:50;5.95;;;3.20;;
74799;SDS011;63326;45.088;7.658;2023-04-24T04:35:17;5.13;;;2.60;;
74799;SDS011;63326;45.088;7.658;2023-04-24T04:37:44;7.05;;;3.05;;
74799;SDS011;63326;45.088;7.658;2023-04-24T04:40:32;6.20;;;3.55;;
74799;SDS011;63326;45.088;7.658;2023-04-24T04:43:02;5.95;;;4.20;;
74799;SDS011;63326;45.088;7.658;2023-04-24T04:45:37;5.53;;;3.72;;
74799;SDS011;63326;45.088;7.658;2023-04-24T04:48:23;4.53;;;3.35;;
74799;SDS011;63326;45.088;7.658;2023-04-24T04:50:51;5.88;;;3.30;;
74799;SDS011;63326;45.088;7.658;2023-04-24T04:53:20;5.47;;;2.95;;
74799;SDS011;63326;45.088;7.658;2023-04-24T04:55:47;6.10;;;3.50;;
74799;SDS011;63326;45.088;7.658;2023-04-24T04:58:15;4.57;;;2.67;;
74799;SDS011;63326;45.088;7.658;2023-04-24T05:00:43;7.07;;;2.63;;
74799;SDS011;63326;45.088;7.658;2023-04-24T05:03:20;5.60;;;2.92;;
74799;SDS011;63326;45.088;7.658;2023-04-24T05:05:54;5.90;;;3.20;;
74799;SDS011;63326;45.088;7.658;2023-04-24T05:08:23;5.45;;;2.72;;
74799;SDS011;63326;45.088;7.658;2023-04-24T05:10:53;5.13;;;2.95;;
74799;SDS011;63326;45.088;7.658;2023-04-24T05:13:21;6.68;;;3.50;;
74799;SDS011;63326;45.088;7.658;2023-04-24T05:16:08;4.38;;;2.35;;
74799;SDS011;63326;45.088;7.658;2023-04-24T05:18:35;6.10;;;3.80;;
74799;SDS011;63326;45.088;7.658;2023-04-24T05:21:03;7.22;;;4.03;;
74799;SDS011;63326;45.088;7.658;2023-04-24T05:23:30;7.15;;;2.97;;
74799;SDS011;63326;45.088;7.658;2023-04-24T05:25:57;5.57;;;3.72;;
74799;SDS011;63326;45.088;7.658;2023-04-24T05:28:23;7.18;;;3.55;;
74799;SDS011;63326;45.088;7.658;2023-04-24T05:31:03;7.88;;;3.78;;
74799;SDS011;63326;45.088;7.658;2023-04-24T05:33:30;7.35;;;3.70;;
74799;SDS011;63326;45.088;7.658;2023-04-24T05:35:57;6.22;;;3.15;;
74799;SDS011;63326;45.088;7.658;2023-04-24T05:38:24;6.22;;;3.08;;
74799;SDS011;63326;45.088;7.658;2023-04-24T05:40:50;5.75;;;4.32;;
74799;SDS011;63326;45.088;7.658;2023-04-24T05:43:17;6.45;;;3.53;;
74799;SDS011;63326;45.088;7.658;2023-04-24T05:45:44;6.28;;;3.55;;
74799;SDS011;63326;45.088;7.658;2023-04-24T05:48:10;6.50;;;3.13;;
74799;SDS011;63326;45.088;7.658;2023-04-24T05:50:37;5.53;;;3.40;;
74799;SDS011;63326;45.088;7.658;2023-04-24T05:53:04;6.75;;;2.97;;
74799;SDS011;63326;45.088;7.658;2023-04-24T05:55:36;6.68;;;3.22;;
74799;SDS011;63326;45.088;7.658;2023-04-24T05:58:03;8.30;;;3.63;;
74799;SDS011;63326;45.088;7.658;2023-04-24T06:00:32;5.32;;;3.30;;
74799;SDS011;63326;45.088;7.658;2023-04-24T06:03:04;7.00;;;3.10;;
74799;SDS011;63326;45.088;7.658;2023-04-24T06:05:31;6.88;;;3.92;;
74799;SDS011;63326;45.088;7.658;2023-04-24T06:07:58;6.63;;;4.53;;
74799;SDS011;63326;45.088;7.658;2023-04-24T06:10:30;6.07;;;3.75;;
74799;SDS011;63326;45.088;7.658;2023-04-24T06:12:57;8.85;;;4.13;;
74799;SDS011;63326;45.088;7.658;2023-04-24T06:15:28;7.38;;;4.82;;
74799;SDS011;63326;45.088;7.658;2023-04-24T06:18:19;8.18;;;5.03;;
74799;SDS011;63326;45.088;7.658;2023-04-24T06:20:47;6.15;;;3.67;;
74799;SDS011;63326;45.088;7.658;2023-04-24T06:23:13;7.90;;;3.75;;
74799;SDS011;63326;45.088;7.658;2023-04-24T06:25:40;8.98;;;4.55;;
74799;SDS011;63326;45.088;7.658;2023-04-24T06:28:07;6.95;;;3.58;;
74799;SDS011;63326;45.088;7.658;2023-04-24T06:30:34;6.57;;;3.97;;
74799;SDS011;63326;45.088;7.658;2023-04-24T06:33:01;7.10;;;4.00;;
74799;SDS011;63326;45.088;7.658;2023-04-24T06:35:45;8.57;;;3.03;;
74799;SDS011;63326;45.088;7.658;2023-04-24T06:38:11;4.97;;;2.65;;
74799;SDS011;63326;45.088;7.658;2023-04-24T06:40:38;8.02;;;4.28;;
74799;SDS011;63326;45.088;7.658;2023-04-24T06:43:05;6.65;;;3.55;;
74799;SDS011;63326;45.088;7.658;2023-04-24T06:45:32;7.25;;;4.10;;
74799;SDS011;63326;45.088;7.658;2023-04-24T06:47:59;5.68;;;3.30;;
74799;SDS011;63326;45.088;7.658;2023-04-24T06:50:25;5.72;;;3.47;;
74799;SDS011;63326;45.088;7.658;2023-04-24T06:52:52;8.20;;;2.85;;
74799;SDS011;63326;45.088;7.658;2023-04-24T06:55:19;5.15;;;2.40;;
74799;SDS011;63326;45.088;7.658;2023-04-24T06:57:45;8.45;;;4.28;;
74799;SDS011;63326;45.088;7.658;2023-04-24T07:00:12;7.63;;;3.65;;
74799;SDS011;63326;45.088;7.658;2023-04-24T07:02:39;7.75;;;4.70;;
74799;SDS011;63326;45.088;7.658;2023-04-24T07:05:06;9.50;;;4.32;;
74799;SDS011;63326;45.088;7.658;2023-04-24T07:07:34;6.45;;;3.58;;
74799;SDS011;63326;45.088;7.658;2023-04-24T07:10:04;7.18;;;3.88;;
74799;SDS011;63326;45.088;7.658;2023-04-24T07:12:31;4.75;;;2.85;;
74799;SDS011;63326;45.088;7.658;2023-04-24T07:14:59;7.53;;;2.50;;
74799;SDS011;63326;45.088;7.658;2023-04-24T07:19:53;10.07;;;2.88;;
74799;SDS011;63326;45.088;7.658;2023-04-24T07:22:19;4.50;;;2.42;;
74799;SDS011;63326;45.088;7.658;2023-04-24T07:24:46;5.57;;;2.65;;
74799;SDS011;63326;45.088;7.658;2023-04-24T07:27:13;5.93;;;3.55;;
74799;SDS011;63326;45.088;7.658;2023-04-24T07:29:41;6.63;;;3.80;;
74799;SDS011;63326;45.088;7.658;2023-04-24T07:32:08;7.28;;;4.35;;
74799;SDS011;63326;45.088;7.658;2023-04-24T07:34:35;5.22;;;3.28;;
74799;SDS011;63326;45.088;7.658;2023-04-24T07:37:02;7.05;;;4.70;;
74799;SDS011;63326;45.088;7.658;2023-04-24T07:39:29;6.45;;;4.35;;
74799;SDS011;63326;45.088;7.658;2023-04-24T07:41:56;6.97;;;3.35;;
74799;SDS011;63326;45.088;7.658;2023-04-24T07:44:23;9.23;;;4.13;;
74799;SDS011;63326;45.088;7.658;2023-04-24T07:46:49;7.78;;;4.57;;
74799;SDS011;63326;45.088;7.658;2023-04-24T07:49:16;5.60;;;3.72;;
74799;SDS011;63326;45.088;7.658;2023-04-24T07:51:45;6.00;;;3.88;;
74799;SDS011;63326;45.088;7.658;2023-04-24T07:54:12;8.00;;;5.47;;
74799;SDS011;63326;45.088;7.658;2023-04-24T07:56:38;9.07;;;5.30;;
74799;SDS011;63326;45.088;7.658;2023-04-24T07:59:06;9.38;;;5.03;;
74799;SDS011;63326;45.088;7.658;2023-04-24T08:01:32;8.10;;;4.60;;
74799;SDS011;63326;45.088;7.658;2023-04-24T08:03:59;7.53;;;4.22;;
74799;SDS011;63326;45.088;7.658;2023-04-24T08:06:26;10.38;;;5.03;;
74799;SDS011;63326;45.088;7.658;2023-04-24T08:08:57;7.80;;;4.60;;
74799;SDS011;63326;45.088;7.658;2023-04-24T08:11:24;8.65;;;4.63;;
74799;SDS011;63326;45.088;7.658;2023-04-24T08:13:51;7.55;;;4.10;;
74799;SDS011;63326;45.088;7.658;2023-04-24T08:16:18;9.50;;;4.85;;
74799;SDS011;63326;45.088;7.658;2023-04-24T08:18:45;8.15;;;4.93;;
74799;SDS011;63326;45.088;7.658;2023-04-24T08:21:11;7.00;;;3.80;;
74799;SDS011;63326;45.088;7.658;2023-04-24T08:23:43;6.82;;;3.67;;
74799;SDS011;63326;45.088;7.658;2023-04-24T08:26:10;8.23;;;4.82;;
74799;SDS011;63326;45.088;7.658;2023-04-24T08:31:04;5.90;;;3.83;;
74799;SDS011;63326;45.088;7.658;2023-04-24T08:33:31;5.43;;;3.58;;
74799;SDS011;63326;45.088;7.658;2023-04-24T08:36:04;6.75;;;3.88;;
74799;SDS011;63326;45.088;7.658;2023-04-24T08:38:32;6.13;;;3.28;;
74799;SDS011;63326;45.088;7.658;2023-04-24T08:41:00;7.38;;;3.88;;
74799;SDS011;63326;45.088;7.658;2023-04-24T08:43:28;7.22;;;4.63;;
74799;SDS011;63326;45.088;7.658;2023-04-24T08:45:55;8.13;;;4.13;;
74799;SDS011;63326;45.088;7.658;2023-04-24T08:48:23;8.93;;;4.15;;
74799;SDS011;63326;45.088;7.658;2023-04-24T08:50:58;14.68;;;7.53;;
74799;SDS011;63326;45.088;7.658;2023-04-24T08:53:26;7.15;;;4.50;;
74799;SDS011;63326;45.088;7.658;2023-04-24T08:58:20;7.47;;;4.30;;
74799;SDS011;63326;45.088;7.658;2023-04-24T09:00:48;5.40;;;3.35;;
74799;SDS011;63326;45.088;7.658;2023-04-24T09:03:16;6.28;;;4.18;;
74799;SDS011;63326;45.088;7.658;2023-04-24T09:05:44;5.80;;;3.75;;
74799;SDS011;63326;45.088;7.658;2023-04-24T09:08:13;6.75;;;4.47;;
74799;SDS011;63326;45.088;7.658;2023-04-24T09:10:41;7.53;;;4.45;;
74799;SDS011;63326;45.088;7.658;2023-04-24T09:13:08;4.95;;;3.20;;
74799;SDS011;63326;45.088;7.658;2023-04-24T09:15:39;8.80;;;4.63;;
74799;SDS011;63326;45.088;7.658;2023-04-24T09:18:07;7.32;;;4.18;;
74799;SDS011;63326;45.088;7.658;2023-04-24T09:20:34;7.60;;;4.22;;
74799;SDS011;63326;45.088;7.658;2023-04-24T09:23:02;5.70;;;2.95;;
74799;SDS011;63326;45.088;7.658;2023-04-24T09:25:32;6.80;;;4.80;;
74799;SDS011;63326;45.088;7.658;2023-04-24T09:28:00;4.78;;;3.17;;
74799;SDS011;63326;45.088;7.658;2023-04-24T09:30:29;8.05;;;4.63;;
74799;SDS011;63326;45.088;7.658;2023-04-24T09:33:15;6.60;;;4.22;;
74799;SDS011;63326;45.088;7.658;2023-04-24T09:35:52;8.32;;;4.38;;
74799;SDS011;63326;45.088;7.658;2023-04-24T09:38:19;8.35;;;4.32;;
74799;SDS011;63326;45.088;7.658;2023-04-24T09:41:01;6.82;;;3.58;;
74799;SDS011;63326;45.088;7.658;2023-04-24T09:43:29;7.28;;;4.50;;
74799;SDS011;63326;45.088;7.658;2023-04-24T09:45:57;7.20;;;3.50;;
74799;SDS011;63326;45.088;7.658;2023-04-24T09:48:37;5.18;;;3.42;;
74799;SDS011;63326;45.088;7.658;2023-04-24T09:51:05;6.63;;;4.40;;
74799;SDS011;63326;45.088;7.658;2023-04-24T09:53:38;8.50;;;4.10;;
74799;SDS011;63326;45.088;7.658;2023-04-24T09:56:12;5.93;;;4.03;;
74799;SDS011;63326;45.088;7.658;2023-04-24T10:01:06;6.47;;;3.85;;
74799;SDS011;63326;45.088;7.658;2023-04-24T10:06:00;6.28;;;3.70;;
74799;SDS011;63326;45.088;7.658;2023-04-24T10:08:36;8.32;;;4.57;;
74799;SDS011;63326;45.088;7.658;2023-04-24T10:11:04;6.85;;;3.85;;
74799;SDS011;63326;45.088;7.658;2023-04-24T10:13:31;5.50;;;4.20;;
74799;SDS011;63326;45.088;7.658;2023-04-24T10:15:58;5.40;;;3.47;;
74799;SDS011;63326;45.088;7.658;2023-04-24T10:18:27;6.38;;;3.40;;
74799;SDS011;63326;45.088;7.658;2023-04-24T10:20:54;5.45;;;3.97;;
74799;SDS011;63326;45.088;7.658;2023-04-24T10:23:22;5.78;;;4.10;;
74799;SDS011;63326;45.088;7.658;2023-04-24T10:25:51;6.28;;;4.32;;
74799;SDS011;63326;45.088;7.658;2023-04-24T10:28:19;5.85;;;4.18;;
74799;SDS011;63326;45.088;7.658;2023-04-24T10:30:46;6.63;;;3.20;;
74799;SDS011;63326;45.088;7.658;2023-04-24T10:33:13;5.45;;;4.15;;
74799;SDS011;63326;45.088;7.658;2023-04-24T10:35:42;7.97;;;4.00;;
74799;SDS011;63326;45.088;7.658;2023-04-24T10:38:12;5.55;;;4.25;;
74799;SDS011;63326;45.088;7.658;2023-04-24T10:40:40;6.80;;;3.85;;
74799;SDS011;63326;45.088;7.658;2023-04-24T10:43:09;6.32;;;4.30;;
74799;SDS011;63326;45.088;7.658;2023-04-24T10:45:38;6.15;;;4.00;;
74799;SDS011;63326;45.088;7.658;2023-04-24T10:48:06;6.75;;;3.70;;
74799;SDS011;63326;45.088;7.658;2023-04-24T10:53:21;4.90;;;3.00;;
74799;SDS011;63326;45.088;7.658;2023-04-24T10:58:23;4.53;;;3.33;;
74799;SDS011;63326;45.088;7.658;2023-04-24T11:00:57;4.30;;;2.88;;
74799;SDS011;63326;45.088;7.658;2023-04-24T11:03:28;5.03;;;3.05;;
74799;SDS011;63326;45.088;7.658;2023-04-24T11:08:27;4.38;;;2.63;;
74799;SDS011;63326;45.088;7.658;2023-04-24T11:10:56;5.30;;;3.10;;
74799;SDS011;63326;45.088;7.658;2023-04-24T11:16:21;4.47;;;2.92;;
74799;SDS011;63326;45.088;7.658;2023-04-24T11:19:08;4.05;;;3.10;;
74799;SDS011;63326;45.088;7.658;2023-04-24T11:24:23;4.97;;;3.40;;
74799;SDS011;63326;45.088;7.658;2023-04-24T11:32:19;4.70;;;3.05;;
74799;SDS011;63326;45.088;7.658;2023-04-24T11:34:51;4.40;;;2.58;;
74799;SDS011;63326;45.088;7.658;2023-04-24T11:37:29;4.13;;;3.00;;
74799;SDS011;63326;45.088;7.658;2023-04-24T11:40:10;4.40;;;3.15;;
74799;SDS011;63326;45.088;7.658;2023-04-24T11:42:42;4.28;;;3.10;;
74799;SDS011;63326;45.088;7.658;2023-04-24T11:45:14;3.70;;;2.58;;
74799;SDS011;63326;45.088;7.658;2023-04-24T11:47:42;4.53;;;2.85;;
74799;SDS011;63326;45.088;7.658;2023-04-24T11:50:14;5.60;;;3.13;;
74799;SDS011;63326;45.088;7.658;2023-04-24T11:52:46;4.90;;;3.67;;
74799;SDS011;63326;45.088;7.658;2023-04-24T11:57:50;3.65;;;3.20;;
74799;SDS011;63326;45.088;7.658;2023-04-24T12:02:47;2.90;;;2.30;;
74799;SDS011;63326;45.088;7.658;2023-04-24T12:05:25;2.97;;;2.58;;
74799;SDS011;63326;45.088;7.658;2023-04-24T12:07:53;4.28;;;3.75;;
74799;SDS011;63326;45.088;7.658;2023-04-24T12:10:24;3.67;;;2.83;;
74799;SDS011;63326;45.088;7.658;2023-04-24T12:12:53;3.13;;;2.78;;
74799;SDS011;63326;45.088;7.658;2023-04-24T12:15:21;2.33;;;1.85;;
74799;SDS011;63326;45.088;7.658;2023-04-24T12:17:50;3.20;;;1.92;;
74799;SDS011;63326;45.088;7.658;2023-04-24T12:20:23;3.53;;;2.22;;
74799;SDS011;63326;45.088;7.658;2023-04-24T12:22:58;2.83;;;1.80;;
74799;SDS011;63326;45.088;7.658;2023-04-24T12:25:30;1.88;;;1.15;;
74799;SDS011;63326;45.088;7.658;2023-04-24T12:30:32;3.35;;;1.55;;
74799;SDS011;63326;45.088;7.658;2023-04-24T12:33:01;1.58;;;1.10;;
74799;SDS011;63326;45.088;7.658;2023-04-24T12:35:29;1.77;;;0.88;;
74799;SDS011;63326;45.088;7.658;2023-04-24T12:38:11;2.53;;;0.70;;
74799;SDS011;63326;45.088;7.658;2023-04-24T12:40:43;1.10;;;0.65;;
74799;SDS011;63326;45.088;7.658;2023-04-24T12:43:17;1.20;;;0.98;;
74799;SDS011;63326;45.088;7.658;2023-04-24T12:45:45;1.10;;;0.57;;
74799;SDS011;63326;45.088;7.658;2023-04-24T12:48:14;2.78;;;0.85;;
74799;SDS011;63326;45.088;7.658;2023-04-24T12:50:42;2.60;;;1.00;;
74799;SDS011;63326;45.088;7.658;2023-04-24T12:53:12;2.20;;;1.27;;
74799;SDS011;63326;45.088;7.658;2023-04-24T12:55:39;2.72;;;1.02;;
74799;SDS011;63326;45.088;7.658;2023-04-24T12:58:06;3.08;;;1.35;;
74799;SDS011;63326;45.088;7.658;2023-04-24T13:00:33;2.65;;;1.70;;
74799;SDS011;63326;45.088;7.658;2023-04-24T13:03:00;5.28;;;2.75;;
74799;SDS011;63326;45.088;7.658;2023-04-24T13:05:27;3.63;;;2.13;;
74799;SDS011;63326;45.088;7.658;2023-04-24T13:07:54;1.25;;;0.80;;
74799;SDS011;63326;45.088;7.658;2023-04-24T13:10:21;1.23;;;0.70;;
74799;SDS011;63326;45.088;7.658;2023-04-24T13:12:48;2.20;;;1.50;;
74799;SDS011;63326;45.088;7.658;2023-04-24T13:15:15;1.75;;;0.93;;
74799;SDS011;63326;45.088;7.658;2023-04-24T13:17:42;1.20;;;0.90;;
74799;SDS011;63326;45.088;7.658;2023-04-24T13:20:09;1.65;;;1.15;;
74799;SDS011;63326;45.088;7.658;2023-04-24T13:22:36;2.95;;;1.30;;
74799;SDS011;63326;45.088;7.658;2023-04-24T13:25:03;2.28;;;1.25;;
74799;SDS011;63326;45.088;7.658;2023-04-24T13:27:32;1.45;;;0.80;;
74799;SDS011;63326;45.088;7.658;2023-04-24T13:29:59;3.50;;;0.70;;
74799;SDS011;63326;45.088;7.658;2023-04-24T13:32:25;2.05;;;0.70;;
74799;SDS011;63326;45.088;7.658;2023-04-24T13:34:53;1.17;;;0.63;;
74799;SDS011;63326;45.088;7.658;2023-04-24T13:37:19;0.60;;;0.32;;
74799;SDS011;63326;45.088;7.658;2023-04-24T13:39:46;0.77;;;0.22;;
74799;SDS011;63326;45.088;7.658;2023-04-24T13:42:13;0.60;;;0.45;;
74799;SDS011;63326;45.088;7.658;2023-04-24T13:44:40;0.65;;;0.45;;
74799;SDS011;63326;45.088;7.658;2023-04-24T13:47:08;1.27;;;0.70;;
74799;SDS011;63326;45.088;7.658;2023-04-24T13:52:01;0.95;;;0.70;;
74799;SDS011;63326;45.088;7.658;2023-04-24T13:54:29;0.82;;;0.43;;
74799;SDS011;63326;45.088;7.658;2023-04-24T13:56:57;4.40;;;0.85;;
74799;SDS011;63326;45.088;7.658;2023-04-24T13:59:24;0.73;;;0.65;;
74799;SDS011;63326;45.088;7.658;2023-04-24T14:04:18;4.10;;;1.65;;
74799;SDS011;63326;45.088;7.658;2023-04-24T14:09:12;1.20;;;0.65;;
74799;SDS011;63326;45.088;7.658;2023-04-24T14:11:39;1.08;;;0.95;;
74799;SDS011;63326;45.088;7.658;2023-04-24T14:14:06;1.42;;;0.40;;
74799;SDS011;63326;45.088;7.658;2023-04-24T14:16:34;0.88;;;0.82;;
74799;SDS011;63326;45.088;7.658;2023-04-24T14:19:01;2.13;;;0.60;;
74799;SDS011;63326;45.088;7.658;2023-04-24T14:21:28;0.77;;;0.60;;
74799;SDS011;63326;45.088;7.658;2023-04-24T14:23:54;0.88;;;0.55;;
74799;SDS011;63326;45.088;7.658;2023-04-24T14:26:21;1.40;;;0.68;;
74799;SDS011;63326;45.088;7.658;2023-04-24T14:28:48;0.75;;;0.50;;
74799;SDS011;63326;45.088;7.658;2023-04-24T14:31:17;0.40;;;0.30;;
74799;SDS011;63326;45.088;7.658;2023-04-24T14:33:44;1.55;;;0.98;;
74799;SDS011;63326;45.088;7.658;2023-04-24T14:36:12;0.55;;;0.35;;
74799;SDS011;63326;45.088;7.658;2023-04-24T14:38:39;1.00;;;0.60;;
74799;SDS011;63326;45.088;7.658;2023-04-24T14:41:05;0.68;;;0.45;;
74799;SDS011;63326;45.088;7.658;2023-04-24T14:43:39;1.33;;;1.20;;
74799;SDS011;63326;45.088;7.658;2023-04-24T14:46:06;0.50;;;0.30;;
74799;SDS011;63326;45.088;7.658;2023-04-24T14:48:33;0.77;;;0.60;;
74799;SDS011;63326;45.088;7.658;2023-04-24T14:51:00;0.50;;;0.32;;
74799;SDS011;63326;45.088;7.658;2023-04-24T14:53:27;1.02;;;0.63;;
74799;SDS011;63326;45.088;7.658;2023-04-24T14:55:54;0.82;;;0.57;;
74799;SDS011;63326;45.088;7.658;2023-04-24T14:58:21;1.02;;;0.43;;
74799;SDS011;63326;45.088;7.658;2023-04-24T15:00:47;0.75;;;0.43;;
74799;SDS011;63326;45.088;7.658;2023-04-24T15:03:18;1.15;;;0.50;;
74799;SDS011;63326;45.088;7.658;2023-04-24T15:05:45;0.52;;;0.50;;
74799;SDS011;63326;45.088;7.658;2023-04-24T15:08:12;1.98;;;0.55;;
74799;SDS011;63326;45.088;7.658;2023-04-24T15:10:39;1.30;;;0.30;;
74799;SDS011;63326;45.088;7.658;2023-04-24T15:13:06;1.45;;;0.40;;
74799;SDS011;63326;45.088;7.658;2023-04-24T15:15:33;2.25;;;0.73;;
74799;SDS011;63326;45.088;7.658;2023-04-24T15:17:59;0.70;;;0.47;;
74799;SDS011;63326;45.088;7.658;2023-04-24T15:20:26;0.70;;;0.63;;
74799;SDS011;63326;45.088;7.658;2023-04-24T15:22:53;0.98;;;0.65;;
74799;SDS011;63326;45.088;7.658;2023-04-24T15:25:19;0.75;;;0.52;;
74799;SDS011;63326;45.088;7.658;2023-04-24T15:27:46;0.75;;;0.50;;
74799;SDS011;63326;45.088;7.658;2023-04-24T15:30:13;0.70;;;0.57;;
74799;SDS011;63326;45.088;7.658;2023-04-24T15:32:40;0.68;;;0.32;;
74799;SDS011;63326;45.088;7.658;2023-04-24T15:35:07;1.15;;;0.63;;
74799;SDS011;63326;45.088;7.658;2023-04-24T15:37:36;1.02;;;0.43;;
74799;SDS011;63326;45.088;7.658;2023-04-24T15:40:06;1.48;;;0.82;;
74799;SDS011;63326;45.088;7.658;2023-04-24T15:42:34;2.08;;;0.63;;